AirNav   Air Wisconsin pilot careers
 
 1609 users online  

42V Jones Airport
Benkelman, Nebraska, USA

GOING TO BENKELMAN?


FAA INFORMATION EFFECTIVE 24 MAY 2018

Location

FAA Identifier: 42V
Lat/Long: 40-03-28.9800N / 101-32-48.6010W
40-03.483000N / 101-32.810017W
40.0580500 / -101.5468336
(estimated)
Elevation: 3126 ft. / 953 m (estimated)
Variation: 09E (1985)
From city: 1 mile NW of BENKELMAN, NE
Time zone: UTC -6 (UTC -7 during Standard Time)
Zip code: 69021

Airport Operations

Airport use: Open to the public
Activation date: 11/1954
Control tower: no
ARTCC: DENVER CENTER
FSS: COLUMBUS FLIGHT SERVICE STATION
NOTAMs facility: OLU (NOTAM-D service available)
Attendance: DAYLIGHT HOURS
Wind indicator: yes
Segmented circle: no

Airport Communications

CTAF: 122.9

Nearby radio navigation aids

VOR radial/distance  VOR name  Freq  Var
HCTr219/37.1HAYES CENTER VORTAC117.7011E

 
NDB name  Hdg/Dist  Freq  Var  ID
ST FRANCIS021/22.238606ESYF ... -.-- ..-.

Airport Services

Parking: tiedowns
Airframe service: NONE
Powerplant service: NONE
Bottled oxygen: NONE
Bulk oxygen: NONE

Runway Information

Runway 15/33

Dimensions: 3500 x 25 ft. / 1067 x 8 m
Surface: concrete
RUNWAY 15  RUNWAY 33
Gradient: 0.4%0.4%
Traffic pattern: leftleft
Displaced threshold: no1000 ft.
Obstructions: 17 ft. road, 550 ft. from runway, 32:1 slope to clearnone
+16 FT ROAD 105 FT FM EOR L/R.

Airport Ownership and Management from official FAA records

Ownership: Privately-owned
Owner: STAN JONES
BOX 685
BENKELMAN, NE 69021
Phone 308-423-2941
Manager: STAN JONES
BOX 685
BENKELMAN, NE 69021
Phone 308-423-2941
ALTN NR 308-883-0047

Airport Operational Statistics

Aircraft based on the field: 6
Single engine airplanes: 5
Multi engine airplanes: 1
    
Aircraft operations: avg 63/week *
91% local general aviation
9% transient general aviation
* for 12-month period ending 09 October 1996

Additional Remarks

NEW CROSSWIND RY UNDER CONSTRUCTION WEST OF RY 15/33.

Instrument Procedures

There are no published instrument procedures at 42V.

Some nearby airports with instrument procedures:

KSYF - Cheyenne County Municipal Airport (21 nm SW)
KADT - Atwood-Rawlins County City-County Airport (27 nm SE)
KIML - Imperial Municipal Airport (27 nm N)
2V5 - Wray Municipal Airport (32 nm W)
KGLD - Renner Field (Goodland Municipal Airport) (42 nm S)
 
Loc | Ops | Rwys | IFR | FBO | Links
Com | Nav | Svcs | Stats | Notes

Silverhawk Aviation, Inc.
AirBoss

 
Area around 42V (Jones Airport)
 
Road maps at: MapQuest Bing Google
 
Aerial photo
WARNING: Photo may not be current or correct
Aerial photo of 42V (Jones Airport)
Do you have a better or more recent aerial photo of Jones Airport that you would like to share? If so, please send us your photo.

 
Sectional chart

 
Airport distance calculator
Flying to Jones Airport? Find the distance to fly.

From to 42V

Sunrise and sunset
Times for 19-Jun-2018
 Local
(UTC-6)
 Zulu
(UTC)
Morning civil twilight04:4510:45
Sunrise05:1811:18
Sunset20:1702:17
Evening civil twilight20:5002:50

Current date and time
Zulu (UTC)  19-Jun-2018 18:30:08
Local (UTC-6)  19-Jun-2018 12:30:08
 
METAR
KSYF 
21nm SW 
191815Z AUTO 08012G17KT 10SM CLR 28/12 A2999 RMK AO2 T02770119
KIML 
28nm N 
191753Z AUTO VRB03G14KT 10SM FEW033 BKN043 24/16 A3003 RMK AO2 SLP140 T02440156 10267 20172 50002
K2V5 
32nm W 
191815Z AUTO 09009KT 10SM SCT042 27/13 A3003 RMK AO2
KGLD 
42nm S 
191753Z AUTO 12012G19KT 10SM FEW037 27/17 A3000 RMK AO2 SLP115 T02670167 10278 20178 56012
TAF
KGLD 
42nm S 
191740Z 1918/2018 12010KT P6SM SCT035 FM192300 17015G23KT 6SM -TSRA BKN035CB TEMPO 1923/2003 VRB25G45KT 2SM TSRA OVC025CB FM200300 VRB05KT P6SM VCTS BKN050CB FM200700 36010KT P6SM BKN015 FM201400 32012KT P6SM SCT025
KMCK 
45nm E 
191740Z 1918/2018 08010KT P6SM SCT030 FM200000 03008KT 6SM -TSRA BKN035CB TEMPO 2000/2004 VRB20G40KT 2SM TSRA OVC025CB FM200400 03008KT P6SM VCTS BKN035CB FM200800 VRB05KT P6SM BKN020 FM201300 32011KT P6SM BKN035 FM201500 32012G20KT P6SM FEW020 SCT100
NOTAMs
Click for the latest NOTAMs
NOTAMs are issued by the DoD/FAA and will open in a separate window not controlled by AirNav.

 

 
 

Would you like to see your business listed on this page?

 If your business provides an interesting product or service to pilots, flight crews, aircraft, or users of the Jones Airport, you should consider listing it here.  To start the listing process, click on the button below
 
Add a business
 

Other Pages about Jones Airport

Update a link
 
Copyright © AirNav, LLC. All rights reserved. Privacy Policy  Contact